Time;durP1;ratioP1;P1;durP2;ratioP2;P2;SDS_P1;SDS_P2;PMS_P1;PMS_P2;Temp;Humidity;BMP_temperature;BMP_pressure;BME280_temperature;BME280_humidity;BME280_pressure;Samples;Min_cycle;Max_cycle;Signal;HPM_P1;HPM_P2
2023/10/20 00:01:09;;;;;;;;;;;;;;;21.41;49.36;100123.03;7393945;19;1478;-44
2023/10/20 00:03:38;;;;;;;;;;;;;;;21.36;49.40;100110.06;7397040;19;1486;-41
2023/10/20 00:06:07;;;;;;;;;;;;;;;21.39;49.44;100120.50;7396765;19;1473;-41
2023/10/20 00:08:35;;;;;;;;;;;;;;;21.40;49.28;100124.84;7393808;19;1851;-41
2023/10/20 00:11:07;;;;;;;;;;;;;;;21.38;49.51;100116.13;7394901;19;1490;-41
2023/10/20 00:13:36;;;;;;;;;;;;;;;21.44;49.24;100112.78;7397458;19;1134;-41
2023/10/20 00:16:04;;;;;;;;;;;;;;;21.34;49.28;100106.69;7393663;19;1814;-41
2023/10/20 00:18:35;;;;;;;;;;;;;;;21.38;49.40;100107.22;7394518;19;1883;-41
2023/10/20 00:21:04;;;;;;;;;;;;;;;21.35;49.34;100100.31;7393574;19;1838;-41
2023/10/20 00:23:32;;;;;;;;;;;;;;;21.39;49.25;100115.13;7393856;19;1428;-41
2023/10/20 00:26:01;;;;;;;;;;;;;;;21.38;48.94;100113.41;7393413;19;1418;-41
2023/10/20 00:28:29;;;;;;;;;;;;;;;21.39;48.96;100109.75;7394344;19;1914;-40
2023/10/20 00:30:58;;;;;;;;;;;;;;;21.34;49.08;100117.44;7392458;19;1569;-41
2023/10/20 00:33:26;;;;;;;;;;;;;;;21.33;49.22;100126.53;7394682;19;1495;-41
2023/10/20 00:35:57;;;;;;;;;;;;;;;21.35;49.45;100123.69;7379078;19;1764;-41
2023/10/20 00:38:26;;;;;;;;;;;;;;;21.37;49.45;100124.38;7394408;19;1427;-41
2023/10/20 00:40:54;;;;;;;;;;;;;;;21.35;49.20;100123.69;7391474;19;1776;-41
2023/10/20 00:43:22;;;;;;;;;;;;;;;21.35;49.25;100118.31;7392462;19;1479;-41
2023/10/20 00:45:51;;;;;;;;;;;;;;;21.31;49.13;100128.56;7393506;19;1599;-41
2023/10/20 00:48:19;;;;;;;;;;;;;;;21.34;49.09;100125.53;7392373;19;1852;-41
2023/10/20 00:50:48;;;;;;;;;;;;;;;21.34;49.00;100133.59;7392587;19;1506;-41
2023/10/20 00:53:19;;;;;;;;;;;;;;;21.32;49.29;100134.78;7394168;19;1553;-41
2023/10/20 00:55:48;;;;;;;;;;;;;;;21.35;48.93;100131.75;7392114;19;1510;-41
2023/10/20 00:58:16;;;;;;;;;;;;;;;21.33;49.03;100109.53;7395105;19;1153;-41
2023/10/20 01:00:44;;;;;;;;;;;;;;;21.35;49.11;100118.31;7392410;19;1454;-41
2023/10/20 01:03:13;;;;;;;;;;;;;;;21.27;49.08;100116.47;7391645;19;1871;-41
2023/10/20 01:05:41;;;;;;;;;;;;;;;21.33;48.89;100107.72;7389041;19;1580;-40
2023/10/20 01:08:10;;;;;;;;;;;;;;;21.32;49.16;100108.72;7391972;19;1425;-41
2023/10/20 01:10:41;;;;;;;;;;;;;;;21.29;49.23;100114.44;7390630;19;1865;-41
2023/10/20 01:13:09;;;;;;;;;;;;;;;21.29;49.02;100113.56;7390133;19;1394;-41
2023/10/20 01:15:38;;;;;;;;;;;;;;;21.29;49.12;100116.25;7391868;19;1517;-41
2023/10/20 01:18:07;;;;;;;;;;;;;;;21.33;49.13;100121.16;7390030;19;1474;-41
2023/10/20 01:20:35;;;;;;;;;;;;;;;21.33;49.06;100109.53;7391462;19;1499;-41
2023/10/20 01:23:03;;;;;;;;;;;;;;;21.32;48.99;100111.41;7391792;19;1587;-41
2023/10/20 01:25:35;;;;;;;;;;;;;;;21.31;49.02;100100.81;7391397;19;1405;-41
2023/10/20 01:28:04;;;;;;;;;;;;;;;21.34;49.07;100097.78;7392022;19;1451;-41
2023/10/20 01:30:32;;;;;;;;;;;;;;;21.31;49.42;100106.19;7389611;19;1851;-41
2023/10/20 01:33:01;;;;;;;;;;;;;;;21.36;48.99;100109.22;7392578;19;1133;-41
2023/10/20 01:35:29;;;;;;;;;;;;;;;21.30;49.13;100099.97;7378185;19;1847;-41
2023/10/20 01:37:58;;;;;;;;;;;;;;;21.32;49.14;100103.34;7390529;19;1424;-41
2023/10/20 01:40:27;;;;;;;;;;;;;;;21.28;49.25;100102.00;7389989;19;1818;-41
2023/10/20 01:42:58;;;;;;;;;;;;;;;21.28;49.09;100102.00;7390859;19;1643;-41
2023/10/20 01:45:26;;;;;;;;;;;;;;;21.29;49.00;100101.00;7391282;19;1447;-41
2023/10/20 01:47:55;;;;;;;;;;;;;;;21.30;48.94;100089.22;7389476;19;1390;-41
2023/10/20 01:50:23;;;;;;;;;;;;;;;21.30;49.03;100091.91;7389915;19;1861;-41
2023/10/20 01:52:51;;;;;;;;;;;;;;;21.31;49.14;100087.34;7390736;19;1540;-41
2023/10/20 01:55:20;;;;;;;;;;;;;;;21.30;48.82;100088.38;7389575;19;1692;-41
2023/10/20 01:57:48;;;;;;;;;;;;;;;21.36;48.71;100090.41;7389485;19;1826;-41
2023/10/20 02:00:19;;;;;;;;;;;;;;;21.31;48.97;100095.44;7389681;19;1403;-41
2023/10/20 02:02:48;;;;;;;;;;;;;;;21.29;48.98;100079.47;7390711;19;1498;-40
2023/10/20 02:05:16;;;;;;;;;;;;;;;21.29;49.02;100079.47;7389401;19;1462;-41
2023/10/20 02:07:45;;;;;;;;;;;;;;;21.29;48.85;100086.69;7389894;19;1826;-41
2023/10/20 02:10:14;;;;;;;;;;;;;;;21.29;48.89;100071.41;7388972;19;1980;-41
2023/10/20 02:12:43;;;;;;;;;;;;;;;21.25;49.05;100070.91;7388585;19;1474;-41
2023/10/20 02:15:11;;;;;;;;;;;;;;;21.31;49.07;100068.53;7389544;19;1502;-41
2023/10/20 02:17:42;;;;;;;;;;;;;;;21.25;49.04;100062.00;7388933;19;1409;-41
2023/10/20 02:20:11;;;;;;;;;;;;;;;21.27;48.92;100062.69;7389283;19;1689;-41
2023/10/20 02:22:40;;;;;;;;;;;;;;;21.27;49.00;100062.69;7387313;19;1502;-41
2023/10/20 02:25:09;;;;;;;;;;;;;;;21.31;48.80;100063.16;7389145;19;1198;-41
2023/10/20 02:27:42;;;;;;;;;;;;;;;21.28;48.83;100052.75;7390499;19;1447;-41
2023/10/20 02:30:12;;;;;;;;;;;;;;;21.33;48.67;100062.00;7388324;19;1838;-41
2023/10/20 02:32:43;;;;;;;;;;;;;;;21.30;48.76;100051.56;7391193;19;1760;-41
2023/10/20 02:35:11;;;;;;;;;;;;;;;21.32;48.45;100063.00;7395624;19;1541;-41
2023/10/20 02:37:40;;;;;;;;;;;;;;;21.30;48.73;100050.72;7384497;19;1518;-40
2023/10/20 02:40:10;;;;;;;;;;;;;;;21.28;48.78;100034.75;7396554;19;1868;-40
2023/10/20 02:42:38;;;;;;;;;;;;;;;21.26;48.78;100034.91;7397213;19;1408;-41
2023/10/20 02:45:10;;;;;;;;;;;;;;;21.29;48.70;100043.66;7397082;19;1401;-41
2023/10/20 02:47:39;;;;;;;;;;;;;;;21.25;48.75;100043.19;7395756;19;1584;-41
2023/10/20 02:50:10;;;;;;;;;;;;;;;21.24;48.54;100053.06;7393608;19;1847;-41
2023/10/20 02:52:39;;;;;;;;;;;;;;;21.23;48.58;100046.03;7396395;19;1467;-41
2023/10/20 02:55:08;;;;;;;;;;;;;;;21.23;48.91;100039.81;7397413;19;1480;-41
2023/10/20 02:57:36;;;;;;;;;;;;;;;21.22;49.05;100027.38;7393749;19;1807;-40
2023/10/20 03:00:10;;;;;;;;;;;;;;;21.22;48.84;100044.34;7393380;19;1476;-41
2023/10/20 03:02:38;;;;;;;;;;;;;;;21.25;48.66;100040.50;7398528;19;1479;-41
2023/10/20 03:05:10;;;;;;;;;;;;;;;21.28;48.73;100024.00;7395961;19;1394;-41
2023/10/20 03:07:38;;;;;;;;;;;;;;;21.26;48.65;100032.22;7394924;19;1506;-41
2023/10/20 03:10:07;;;;;;;;;;;;;;;21.27;48.62;100027.72;7394287;19;2108;-41
2023/10/20 03:12:36;;;;;;;;;;;;;;;21.19;48.86;100025.03;7397431;19;1510;-41
2023/10/20 03:15:06;;;;;;;;;;;;;;;21.21;49.04;100047.22;7397516;19;1776;-41
2023/10/20 03:17:34;;;;;;;;;;;;;;;21.23;48.93;100034.44;7397738;19;1546;-41
2023/10/20 03:20:08;;;;;;;;;;;;;;;21.22;48.80;100036.25;7397322;19;1451;-41
2023/10/20 03:22:39;;;;;;;;;;;;;;;21.24;48.58;100025.34;7396535;19;1904;-41
2023/10/20 03:25:08;;;;;;;;;;;;;;;21.24;48.87;100028.03;7396601;19;1236;-41
2023/10/20 03:27:37;;;;;;;;;;;;;;;21.25;48.82;100035.94;7397745;19;1526;-41
2023/10/20 03:30:06;;;;;;;;;;;;;;;21.25;48.64;100038.63;7394702;19;1836;-41
2023/10/20 03:32:35;;;;;;;;;;;;;;;21.28;48.83;100033.94;7396493;19;1783;-41
2023/10/20 03:35:03;;;;;;;;;;;;;;;21.27;48.78;100043.84;7396680;19;1486;-41
2023/10/20 03:37:32;;;;;;;;;;;;;;;21.20;48.76;100030.22;7379918;19;1531;-41
2023/10/20 03:40:03;;;;;;;;;;;;;;;21.22;48.87;100024.69;7394116;19;1548;-41
2023/10/20 03:42:31;;;;;;;;;;;;;;;21.22;48.66;100030.88;7395068;19;1443;-41
2023/10/20 03:45:00;;;;;;;;;;;;;;;21.23;48.77;100023.69;7395808;19;1205;-44
2023/10/20 03:47:33;;;;;;;;;;;;;;;21.21;49.13;100031.91;7394883;19;1946;-41
2023/10/20 03:50:01;;;;;;;;;;;;;;;21.14;48.97;100022.00;7394302;19;1953;-41
2023/10/20 03:52:29;;;;;;;;;;;;;;;21.07;49.02;100037.97;7396072;19;1820;-40
2023/10/20 03:54:58;;;;;;;;;;;;;;;21.03;48.36;100018.63;7396918;19;1759;-40
2023/10/20 03:57:29;;;;;;;;;;;;;;;21.11;48.21;100027.69;7394471;19;1489;-40
2023/10/20 03:59:57;;;;;;;;;;;;;;;21.09;48.60;100016.25;7392872;19;1719;-40
2023/10/20 04:02:25;;;;;;;;;;;;;;;21.06;48.84;100015.59;7393929;19;1550;-40
2023/10/20 04:04:54;;;;;;;;;;;;;;;21.03;48.17;100004.34;7394449;19;1483;-40
2023/10/20 04:07:24;;;;;;;;;;;;;;;20.97;48.62;100018.44;7392972;19;1489;-40
2023/10/20 04:09:52;;;;;;;;;;;;;;;20.98;48.74;100009.38;7394138;19;1855;-40
2023/10/20 04:12:21;;;;;;;;;;;;;;;20.97;48.47;100007.69;7395659;19;1823;-40
2023/10/20 04:14:55;;;;;;;;;;;;;;;20.99;48.50;100001.16;7393497;19;2455;-40
2023/10/20 04:17:24;;;;;;;;;;;;;;;20.95;48.34;100002.50;7393254;19;1432;-40
2023/10/20 04:19:52;;;;;;;;;;;;;;;20.95;48.65;100004.31;7394792;19;1396;-40
2023/10/20 04:22:23;;;;;;;;;;;;;;;20.92;48.49;100010.88;7395918;19;1347;-40
2023/10/20 04:24:51;;;;;;;;;;;;;;;20.94;48.50;100008.88;7396040;19;1869;-40
2023/10/20 04:27:39;;;;;;;;;;;;;;;20.98;48.50;100009.38;7394418;19;1915;-40
2023/10/20 04:43:42;;;;;;;;;;;;;;;20.94;48.07;100003.50;7394460;19;1591;-40
2023/10/20 04:49:17;;;;;;;;;;;;;;;20.95;48.20;100020.44;7393513;19;1742;-40
2023/10/20 04:54:44;;;;;;;;;;;;;;;20.92;48.16;100027.00;7383664;19;1601;-40
2023/10/20 04:57:39;;;;;;;;;;;;;;;20.92;48.07;100024.31;7386932;19;1740;-40
2023/10/20 05:03:06;;;;;;;;;;;;;;;20.94;47.95;100011.56;7383768;19;1787;-40
2023/10/20 05:05:40;;;;;;;;;;;;;;;20.92;47.88;100004.69;7386127;19;1514;-40
2023/10/20 05:08:17;;;;;;;;;;;;;;;20.96;48.06;100012.22;7387184;19;1543;-40
2023/10/20 05:10:46;;;;;;;;;;;;;;;20.93;47.95;100015.28;7385003;19;1851;-40
2023/10/20 05:13:14;;;;;;;;;;;;;;;20.94;48.01;100022.31;7388338;19;1478;-40
2023/10/20 05:15:43;;;;;;;;;;;;;;;20.95;47.81;100021.31;7384308;19;1911;-40
2023/10/20 05:18:14;;;;;;;;;;;;;;;20.97;47.85;100023.81;7385582;19;1847;-40
2023/10/20 05:20:45;;;;;;;;;;;;;;;20.97;47.72;100019.31;7384995;19;1561;-40
2023/10/20 05:23:14;;;;;;;;;;;;;;;21.01;47.61;100031.41;7386007;19;1547;-40
2023/10/20 05:25:47;;;;;;;;;;;;;;;20.99;47.57;100022.66;7385806;19;1490;-40
2023/10/20 05:28:16;;;;;;;;;;;;;;;21.03;47.62;100023.19;7386819;19;1719;-40
2023/10/20 05:30:45;;;;;;;;;;;;;;;21.06;47.52;100020.13;7386270;19;1873;-40
2023/10/20 05:33:16;;;;;;;;;;;;;;;21.14;47.54;100011.25;7387403;19;1931;-40
2023/10/20 05:35:44;;;;;;;;;;;;;;;21.13;47.49;100006.84;7383863;19;1890;-40
2023/10/20 05:38:13;;;;;;;;;;;;;;;21.16;47.62;99999.28;7371360;19;1656;-40
2023/10/20 05:40:41;;;;;;;;;;;;;;;21.06;47.95;100012.91;7385128;19;1533;-43
2023/10/20 05:43:09;;;;;;;;;;;;;;;21.30;47.42;99981.66;7383285;19;1490;-43
2023/10/20 05:45:41;;;;;;;;;;;;;;;21.47;47.01;99981.66;7385094;19;1491;-43
2023/10/20 05:48:10;;;;;;;;;;;;;;;21.54;47.04;99982.66;7385700;19;1503;-43
2023/10/20 05:50:41;;;;;;;;;;;;;;;21.62;46.29;99988.00;7388109;19;1854;-43
2023/10/20 05:53:10;;;;;;;;;;;;;;;21.61;44.79;99994.41;7387244;19;1771;-42
2023/10/20 05:55:38;;;;;;;;;;;;;;;21.52;44.64;99971.22;7390412;19;1983;-43
2023/10/20 05:58:06;;;;;;;;;;;;;;;21.35;44.52;99997.28;7390981;19;1558;-43
2023/10/20 06:00:35;;;;;;;;;;;;;;;21.54;44.97;99974.59;7390487;19;1632;-43
2023/10/20 06:03:04;;;;;;;;;;;;;;;21.60;44.24;99998.09;7393001;19;1090;-43
2023/10/20 06:05:33;;;;;;;;;;;;;;;21.39;45.00;99980.63;7388953;19;1634;-42
2023/10/20 06:08:05;;;;;;;;;;;;;;;21.35;43.89;99987.38;7394004;19;1577;-43
2023/10/20 06:10:33;;;;;;;;;;;;;;;20.95;44.11;99972.94;7397929;19;1845;-42
2023/10/20 06:13:03;;;;;;;;;;;;;;;20.80;44.08;99990.72;7398314;19;1847;-42
2023/10/20 06:15:31;;;;;;;;;;;;;;;20.71;44.11;99987.19;7398683;19;1475;-43
2023/10/20 06:18:00;;;;;;;;;;;;;;;20.77;43.88;99988.34;7398019;19;2452;-43
2023/10/20 06:20:28;;;;;;;;;;;;;;;20.95;43.57;99980.13;7391007;19;1504;-49
2023/10/20 06:22:56;;;;;;;;;;;;;;;21.25;43.94;100001.00;7394628;19;1396;-40
2023/10/20 06:25:27;;;;;;;;;;;;;;;21.53;43.55;100018.66;7395862;19;1579;-39
2023/10/20 06:27:56;;;;;;;;;;;;;;;21.64;44.10;100024.50;7392477;19;1421;-40
2023/10/20 06:30:24;;;;;;;;;;;;;;;21.43;44.57;100035.81;7396706;19;1872;-40
2023/10/20 06:33:14;;;;;;;;;;;;;;;21.44;44.75;100040.16;7396235;19;1337;-40
2023/10/20 06:35:50;;;;;;;;;;;;;;;21.48;45.17;100019.13;7397633;19;1581;-40
2023/10/20 06:38:23;;;;;;;;;;;;;;;21.50;45.09;100024.34;7384580;19;1653;-40
2023/10/20 06:40:54;;;;;;;;;;;;;;;21.48;45.20;100012.94;7398272;19;1535;-40
2023/10/20 06:43:23;;;;;;;;;;;;;;;21.54;44.93;100028.38;7396457;19;1522;-40
2023/10/20 06:45:57;;;;;;;;;;;;;;;21.36;45.09;100007.03;7396500;19;1522;-40
2023/10/20 06:48:26;;;;;;;;;;;;;;;21.54;45.32;100031.06;7395882;19;1388;-40
2023/10/20 06:50:54;;;;;;;;;;;;;;;21.63;45.11;100036.28;7395148;19;1853;-40
2023/10/20 06:53:23;;;;;;;;;;;;;;;21.61;45.42;100021.31;7394610;19;1542;-40
2023/10/20 06:55:54;;;;;;;;;;;;;;;21.60;45.46;100031.22;7397223;19;1547;-40
2023/10/20 06:58:22;;;;;;;;;;;;;;;21.59;45.59;100023.34;7396348;19;1479;-40
2023/10/20 07:00:50;;;;;;;;;;;;;;;21.53;45.69;100019.47;7395848;19;1602;-40
2023/10/20 07:03:20;;;;;;;;;;;;;;;21.63;45.70;100019.31;7395516;19;1580;-40
2023/10/20 07:05:49;;;;;;;;;;;;;;;21.61;45.79;100027.53;7396096;19;1822;-40
2023/10/20 07:08:17;;;;;;;;;;;;;;;21.65;45.79;100014.59;7395845;19;1538;-40
2023/10/20 07:10:46;;;;;;;;;;;;;;;21.69;45.68;100018.63;7395353;19;1841;-40
2023/10/20 07:13:17;;;;;;;;;;;;;;;21.98;45.38;100017.19;7394549;19;1545;-40
2023/10/20 07:15:46;;;;;;;;;;;;;;;22.02;45.43;100029.28;7395234;19;1547;-40
2023/10/20 07:18:14;;;;;;;;;;;;;;;22.03;45.53;100021.03;7393916;19;1550;-40
2023/10/20 07:20:42;;;;;;;;;;;;;;;22.08;45.50;100012.44;7394628;19;1558;-40
2023/10/20 07:23:11;;;;;;;;;;;;;;;22.08;45.30;100025.88;7394678;19;1514;-40
2023/10/20 07:25:40;;;;;;;;;;;;;;;21.98;45.72;100015.31;7395361;19;1562;-40
2023/10/20 07:28:08;;;;;;;;;;;;;;;22.01;45.76;100011.47;7393124;19;1394;-40
2023/10/20 07:30:40;;;;;;;;;;;;;;;22.03;45.74;100009.44;7394094;19;1818;-41
2023/10/20 07:33:08;;;;;;;;;;;;;;;21.93;45.84;100009.63;7396196;19;1570;-40
2023/10/20 07:35:39;;;;;;;;;;;;;;;21.92;45.93;100007.94;7393707;19;1492;-40
2023/10/20 07:38:07;;;;;;;;;;;;;;;22.05;45.86;100008.25;7379708;19;1840;-40
2023/10/20 07:40:37;;;;;;;;;;;;;;;22.12;45.93;99994.06;7394098;19;1493;-42
2023/10/20 07:43:06;;;;;;;;;;;;;;;22.06;45.90;99995.59;7394412;19;1395;-40
2023/10/20 07:45:43;;;;;;;;;;;;;;;22.09;45.74;99997.13;7392299;19;1441;-40
2023/10/20 07:48:11;;;;;;;;;;;;;;;22.02;46.07;99995.16;7394962;19;1532;-40
2023/10/20 07:50:40;;;;;;;;;;;;;;;22.13;45.79;99993.91;7393397;19;1861;-40
2023/10/20 07:53:08;;;;;;;;;;;;;;;22.15;45.93;99989.19;7394116;19;1491;-40
2023/10/20 07:55:36;;;;;;;;;;;;;;;22.17;46.08;99989.84;7395335;19;1206;-40
2023/10/20 07:58:08;;;;;;;;;;;;;;;22.12;46.17;99989.53;7394524;19;1882;-40
2023/10/20 08:00:37;;;;;;;;;;;;;;;21.95;46.50;99996.00;7394704;19;1836;-40
2023/10/20 08:03:10;;;;;;;;;;;;;;;22.08;46.18;99996.28;7393962;19;1611;-40
2023/10/20 08:05:39;;;;;;;;;;;;;;;22.10;46.24;100004.19;7393899;19;1515;-40
2023/10/20 08:08:08;;;;;;;;;;;;;;;22.18;46.13;99988.84;7394236;19;1890;-40
2023/10/20 08:10:38;;;;;;;;;;;;;;;22.18;46.30;99996.94;7394606;19;1912;-40
2023/10/20 08:13:07;;;;;;;;;;;;;;;22.16;46.43;99982.81;7393934;19;1550;-40
2023/10/20 08:15:38;;;;;;;;;;;;;;;22.16;46.53;99980.13;7394803;19;1590;-40
2023/10/20 08:18:10;;;;;;;;;;;;;;;22.18;46.50;99996.94;7389873;19;1588;-40
2023/10/20 08:20:38;;;;;;;;;;;;;;;22.20;46.32;99984.13;7392534;19;1649;-40
2023/10/20 08:23:08;;;;;;;;;;;;;;;22.13;46.47;99979.63;7393509;19;1471;-40
2023/10/20 08:25:39;;;;;;;;;;;;;;;22.15;46.51;99986.50;7391768;19;1552;-40
2023/10/20 08:28:10;;;;;;;;;;;;;;;22.11;46.84;99995.94;7388994;19;1914;-40
2023/10/20 08:30:38;;;;;;;;;;;;;;;22.11;46.68;99985.16;7389945;19;1871;-40
2023/10/20 08:33:09;;;;;;;;;;;;;;;22.23;46.34;99997.22;7394744;19;1725;-40
2023/10/20 08:35:38;;;;;;;;;;;;;;;22.27;46.64;99996.91;7392505;19;1851;-40
2023/10/20 08:38:07;;;;;;;;;;;;;;;22.24;46.56;99979.25;7376390;19;1915;-40
2023/10/20 08:40:35;;;;;;;;;;;;;;;22.22;46.85;99984.78;7392171;19;1803;-40
2023/10/20 08:43:04;;;;;;;;;;;;;;;22.27;46.72;99988.84;7391844;19;1641;-40
2023/10/20 08:45:34;;;;;;;;;;;;;;;22.16;46.78;99981.94;7394050;19;1447;-40
2023/10/20 08:48:03;;;;;;;;;;;;;;;22.28;46.75;100006.66;7392341;19;1938;-40
2023/10/20 08:50:35;;;;;;;;;;;;;;;22.37;46.43;100005.63;7391834;19;1395;-40
2023/10/20 08:53:04;;;;;;;;;;;;;;;22.40;46.40;99997.16;7389572;19;1838;-40
2023/10/20 08:55:32;;;;;;;;;;;;;;;22.38;46.62;100008.16;7393024;19;1622;-40
2023/10/20 08:58:00;;;;;;;;;;;;;;;22.34;46.80;100011.34;7391761;19;1946;-40
2023/10/20 09:00:30;;;;;;;;;;;;;;;22.30;46.66;100004.63;7389488;19;1637;-40
2023/10/20 09:03:00;;;;;;;;;;;;;;;22.35;46.80;100013.03;7394215;19;1224;-40
2023/10/20 09:05:29;;;;;;;;;;;;;;;22.28;46.81;100012.88;7392745;19;1597;-40
2023/10/20 09:08:00;;;;;;;;;;;;;;;22.15;47.27;99997.25;7392547;19;1469;-40
2023/10/20 09:10:28;;;;;;;;;;;;;;;22.09;47.42;99995.28;7390717;19;1532;-40
2023/10/20 09:12:57;;;;;;;;;;;;;;;22.02;47.63;100005.06;7390045;19;1912;-40
2023/10/20 09:15:25;;;;;;;;;;;;;;;22.10;47.56;100002.31;7391464;19;1805;-40
2023/10/20 09:17:56;;;;;;;;;;;;;;;22.16;47.10;99982.81;7389071;19;1470;-40
2023/10/20 09:20:24;;;;;;;;;;;;;;;22.32;46.68;99990.00;7389171;19;1471;-40
2023/10/20 09:22:53;;;;;;;;;;;;;;;22.31;46.51;99982.09;7390144;19;1815;-40
2023/10/20 09:25:24;;;;;;;;;;;;;;;22.31;46.17;99988.31;7390870;19;1412;-40
2023/10/20 09:27:52;;;;;;;;;;;;;;;22.41;46.28;99980.84;7391180;19;1550;-40
2023/10/20 09:30:21;;;;;;;;;;;;;;;22.35;46.70;99964.56;7390612;19;1748;-40
2023/10/20 09:32:49;;;;;;;;;;;;;;;22.38;46.71;99953.41;7390945;19;1856;-41
2023/10/20 09:35:18;;;;;;;;;;;;;;;22.35;47.12;99961.84;7389004;19;1438;-40
2023/10/20 09:37:47;;;;;;;;;;;;;;;22.32;47.41;99967.59;7377001;19;1502;-40
2023/10/20 09:40:15;;;;;;;;;;;;;;;22.29;46.70;99965.25;7387823;19;1443;-40
2023/10/20 09:42:57;;;;;;;;;;;;;;;22.22;47.02;99960.56;7390527;19;1381;-40
2023/10/20 09:45:32;;;;;;;;;;;;;;;22.21;47.07;99956.16;7398065;19;1475;-40
2023/10/20 09:48:03;;;;;;;;;;;;;;;22.23;47.24;99945.22;7396932;19;1474;-40
2023/10/20 09:50:32;;;;;;;;;;;;;;;22.23;47.11;99946.06;7397356;19;1853;-40
2023/10/20 09:53:01;;;;;;;;;;;;;;;22.39;46.64;99938.94;7394195;19;1851;-40
2023/10/20 09:55:29;;;;;;;;;;;;;;;22.40;46.78;99927.13;7396274;19;1491;-40
2023/10/20 09:58:00;;;;;;;;;;;;;;;22.33;46.99;99928.88;7395891;19;1621;-40
2023/10/20 10:00:33;;;;;;;;;;;;;;;22.33;46.62;99923.50;7397100;19;1582;-40
2023/10/20 10:03:02;;;;;;;;;;;;;;;22.31;46.91;99925.53;7396560;19;1168;-40
2023/10/20 10:05:33;;;;;;;;;;;;;;;22.38;46.42;99927.34;7398051;19;1494;-40
2023/10/20 10:08:06;;;;;;;;;;;;;;;22.35;46.46;99932.22;7396700;19;1648;-40
2023/10/20 10:10:35;;;;;;;;;;;;;;;22.11;46.81;99882.84;7398850;19;1487;-40
2023/10/20 10:13:07;;;;;;;;;;;;;;;22.52;46.38;99928.41;7394561;19;1863;-40
2023/10/20 10:15:43;;;;;;;;;;;;;;;22.52;46.65;99917.63;7397271;19;1790;-40
2023/10/20 10:18:13;;;;;;;;;;;;;;;22.44;46.72;99923.06;7383812;19;1129;-40
2023/10/20 10:20:46;;;;;;;;;;;;;;;22.42;46.75;99907.09;7389266;19;1541;-40
2023/10/20 10:23:15;;;;;;;;;;;;;;;22.40;46.72;99911.81;7394245;19;1629;-40
2023/10/20 10:25:44;;;;;;;;;;;;;;;22.27;47.14;99891.88;7396909;19;1427;-40
2023/10/20 10:28:16;;;;;;;;;;;;;;;22.31;47.29;99912.06;7397085;19;1521;-40
2023/10/20 10:30:45;;;;;;;;;;;;;;;22.32;47.44;99900.25;7394885;19;1969;-42
2023/10/20 10:33:14;;;;;;;;;;;;;;;22.29;47.38;99892.53;7395655;19;1870;-40
2023/10/20 10:35:43;;;;;;;;;;;;;;;22.38;47.24;99897.69;7396014;19;1549;-40
2023/10/20 10:38:20;;;;;;;;;;;;;;;22.36;47.26;99897.03;7378827;19;1424;-40
2023/10/20 10:40:49;;;;;;;;;;;;;;;22.23;46.13;99886.81;7396099;19;1753;-40
2023/10/20 10:43:21;;;;;;;;;;;;;;;22.28;47.07;99891.69;7396605;19;1525;-40
2023/10/20 10:45:53;;;;;;;;;;;;;;;22.25;46.89;99878.59;7395789;19;1504;-40
2023/10/20 10:48:27;;;;;;;;;;;;;;;22.30;47.02;99886.94;7391188;19;1355;-40
2023/10/20 10:50:56;;;;;;;;;;;;;;;22.13;46.90;99858.44;7392017;19;1934;-40
2023/10/20 10:53:24;;;;;;;;;;;;;;;22.27;46.75;99902.66;7388627;19;1858;-40
2023/10/20 10:55:52;;;;;;;;;;;;;;;22.27;46.95;99895.41;7391084;19;2388;-41
2023/10/20 10:58:25;;;;;;;;;;;;;;;22.21;46.92;99910.38;7392209;19;1553;-40
2023/10/20 11:00:54;;;;;;;;;;;;;;;22.17;47.07;99898.28;7391611;19;1689;-40
2023/10/20 11:03:22;;;;;;;;;;;;;;;22.18;47.06;99899.13;7393594;19;1564;-40
2023/10/20 11:05:51;;;;;;;;;;;;;;;22.17;47.05;99900.97;7393547;19;1917;-40
2023/10/20 11:08:21;;;;;;;;;;;;;;;22.22;46.88;99911.22;7393135;19;1833;-40
2023/10/20 11:10:50;;;;;;;;;;;;;;;22.28;46.77;99902.44;7395010;19;1748;-40
2023/10/20 11:13:20;;;;;;;;;;;;;;;22.33;46.44;99902.78;7390534;19;1862;-40
2023/10/20 11:15:48;;;;;;;;;;;;;;;;;;7397185;19;1938;-40
2023/10/20 11:18:20;;;;;;;;;;;;;;;22.33;46.41;99891.16;7395845;19;1835;-40
2023/10/20 11:20:49;;;;;;;;;;;;;;;22.34;46.35;99904.47;7397972;19;1782;-40
2023/10/20 11:23:19;;;;;;;;;;;;;;;22.24;46.59;99904.69;7396987;19;1922;-40
2023/10/20 11:25:48;;;;;;;;;;;;;;;22.22;46.61;99895.06;7398305;19;1802;-40
2023/10/20 11:28:17;;;;;;;;;;;;;;;22.33;46.25;99893.84;7396738;19;1926;-40
2023/10/20 11:30:45;;;;;;;;;;;;;;;22.35;46.06;99899.91;7397239;19;1802;-40
2023/10/20 11:33:15;;;;;;;;;;;;;;;22.24;46.47;99907.38;7396907;19;1857;-43
2023/10/20 11:35:46;;;;;;;;;;;;;;;22.07;46.62;99900.38;7396574;19;1827;-40
2023/10/20 11:38:15;;;;;;;;;;;;;;;22.02;47.01;99889.28;7381954;19;1736;-40
2023/10/20 11:40:47;;;;;;;;;;;;;;;22.05;46.73;99895.16;7396375;19;1503;-40
2023/10/20 11:43:15;;;;;;;;;;;;;;;22.01;46.79;99893.84;7396684;19;1744;-40
2023/10/20 11:45:44;;;;;;;;;;;;;;;22.01;46.80;99904.59;7396251;19;1447;-40
2023/10/20 11:48:12;;;;;;;;;;;;;;;22.00;46.65;99902.09;7395373;19;1444;-40
2023/10/20 11:50:40;;;;;;;;;;;;;;;21.98;46.98;99898.72;7395741;19;1522;-40
2023/10/20 11:53:12;;;;;;;;;;;;;;;22.04;46.73;99898.03;7396220;19;1837;-40
2023/10/20 11:55:41;;;;;;;;;;;;;;;22.17;46.30;99902.84;7397970;19;1731;-40
2023/10/20 11:58:09;;;;;;;;;;;;;;;22.15;46.39;99900.31;7395982;19;1824;-40
2023/10/20 12:00:41;;;;;;;;;;;;;;;22.22;46.14;99905.84;7395605;19;1601;-40
2023/10/20 12:03:09;;;;;;;;;;;;;;;22.15;46.31;99911.09;7396802;19;1697;-40
2023/10/20 12:05:39;;;;;;;;;;;;;;;22.08;46.59;99914.66;7396495;19;1463;-40
2023/10/20 12:08:10;;;;;;;;;;;;;;;21.95;46.59;99905.31;7395865;19;1889;-40
2023/10/20 12:10:39;;;;;;;;;;;;;;;21.90;46.74;99931.06;7395526;19;1823;-40
2023/10/20 12:13:08;;;;;;;;;;;;;;;21.88;46.95;99915.09;7393703;19;2573;-40
2023/10/20 12:15:37;;;;;;;;;;;;;;;21.85;46.98;99908.22;7395508;19;1755;-40
2023/10/20 12:18:05;;;;;;;;;;;;;;;21.83;46.91;99896.78;7394304;19;1842;-40
2023/10/20 12:20:34;;;;;;;;;;;;;;;21.85;47.00;99913.59;7394498;19;1811;-40
2023/10/20 12:23:03;;;;;;;;;;;;;;;21.76;47.25;99906.56;7392439;19;2578;-40
2023/10/20 12:25:33;;;;;;;;;;;;;;;21.81;47.17;99924.91;7396343;19;1672;-40
2023/10/20 12:28:02;;;;;;;;;;;;;;;21.82;47.07;99916.63;7393944;19;1577;-40
2023/10/20 12:30:30;;;;;;;;;;;;;;;21.89;46.56;99910.56;7395420;19;1399;-40
2023/10/20 12:32:59;;;;;;;;;;;;;;;21.90;46.63;99920.31;7394238;19;1844;-40
2023/10/20 12:35:28;;;;;;;;;;;;;;;21.93;46.57;99912.72;7394656;19;1645;-40
2023/10/20 12:37:57;;;;;;;;;;;;;;;21.90;46.62;99914.94;7395705;19;1689;-40
2023/10/20 12:40:25;;;;;;;;;;;;;;;21.88;46.65;99922.34;7379686;19;1541;-40
2023/10/20 12:42:56;;;;;;;;;;;;;;;21.89;46.75;99913.25;7394345;19;1439;-58
2023/10/20 12:45:25;;;;;;;;;;;;;;;21.84;47.00;99909.25;7395606;19;1867;-40
2023/10/20 12:47:55;;;;;;;;;;;;;;;21.85;46.95;99916.28;7393738;19;1811;-40
2023/10/20 12:50:23;;;;;;;;;;;;;;;21.81;47.03;99906.06;7394759;19;1478;-40
2023/10/20 12:52:52;;;;;;;;;;;;;;;21.81;47.19;99906.88;7394872;19;1857;-40
2023/10/20 12:55:21;;;;;;;;;;;;;;;21.81;47.07;99906.88;7394727;19;1712;-40
2023/10/20 12:57:49;;;;;;;;;;;;;;;21.80;46.89;99897.13;7394617;19;1470;-40
2023/10/20 13:00:21;;;;;;;;;;;;;;;21.81;47.00;99903.38;7395250;19;1720;-41
2023/10/20 13:02:50;;;;;;;;;;;;;;;21.81;47.26;99898.00;7394453;19;1522;-40
2023/10/20 13:05:18;;;;;;;;;;;;;;;21.79;47.18;99900.84;7393393;19;1455;-40
2023/10/20 13:07:46;;;;;;;;;;;;;;;21.78;47.11;99907.22;7393923;19;1875;-40
2023/10/20 13:10:14;;;;;;;;;;;;;;;21.77;47.35;99892.09;7392810;19;1732;-40
2023/10/20 13:12:43;;;;;;;;;;;;;;;21.75;47.13;99888.75;7392048;19;1846;-40
2023/10/20 13:15:13;;;;;;;;;;;;;;;21.76;47.16;99898.50;7393914;19;1755;-41
2023/10/20 13:17:45;;;;;;;;;;;;;;;21.74;46.91;99899.69;7392760;19;1518;-40
2023/10/20 13:20:14;;;;;;;;;;;;;;;21.71;46.91;99903.56;7392815;19;1798;-40
2023/10/20 13:22:42;;;;;;;;;;;;;;;21.64;47.19;99887.28;7392620;19;1549;-40
2023/10/20 13:25:11;;;;;;;;;;;;;;;21.65;47.02;99909.66;7394339;19;1735;-40
2023/10/20 13:27:39;;;;;;;;;;;;;;;21.65;47.11;99901.59;7393393;19;1799;-40